Time;durP1;ratioP1;P1;durP2;ratioP2;P2;SDS_P1;SDS_P2;PMS_P1;PMS_P2;Temp;Humidity;BMP_temperature;BMP_pressure;BME280_temperature;BME280_humidity;BME280_pressure;Samples;Min_cycle;Max_cycle;Signal;HPM_P1;HPM_P2
2022/03/30 00:01:25;;;;;;;15.50;8.88;;;10.70;99.90;;;;;;5102451;28;20549;-83
2022/03/30 00:03:51;;;;;;;22.13;9.35;;;10.70;99.90;;;;;;5100737;28;20107;-82
2022/03/30 00:06:17;;;;;;;15.43;10.05;;;10.70;99.90;;;;;;5099273;28;20051;-81
2022/03/30 00:08:43;;;;;;;15.80;8.68;;;10.70;99.90;;;;;;5099060;28;20028;-82
2022/03/30 00:11:11;;;;;;;15.88;8.98;;;10.70;99.90;;;;;;5102454;28;20502;-82
2022/03/30 00:13:37;;;;;;;20.00;9.90;;;10.70;99.90;;;;;;5101556;28;20054;-82
2022/03/30 00:16:04;;;;;;;20.90;11.32;;;10.70;99.90;;;;;;5098552;28;20024;-82
2022/03/30 00:18:30;;;;;;;17.38;9.55;;;10.70;99.90;;;;;;5100577;28;20035;-82
2022/03/30 00:20:56;;;;;;;20.02;9.63;;;10.70;99.90;;;;;;5100448;28;20028;-82
2022/03/30 00:23:22;;;;;;;19.00;9.95;;;10.60;99.90;;;;;;5101230;28;20102;-83
2022/03/30 00:25:48;;;;;;;15.35;9.02;;;10.60;99.90;;;;;;5101052;28;20543;-82
2022/03/30 00:28:14;;;;;;;23.35;10.02;;;10.70;99.90;;;;;;5100051;28;20050;-82
2022/03/30 00:30:39;;;;;;;21.83;10.07;;;10.70;99.90;;;;;;5099766;28;20099;-83
2022/03/30 00:33:06;;;;;;;18.38;9.70;;;10.70;99.90;;;;;;5099084;28;20092;-83
2022/03/30 00:35:31;;;;;;;14.52;8.80;;;10.70;99.90;;;;;;5098642;28;20048;-83
2022/03/30 00:37:57;;;;;;;14.68;9.10;;;10.70;99.90;;;;;;5100363;28;20037;-83
2022/03/30 00:40:23;;;;;;;14.40;9.52;;;10.60;99.90;;;;;;5099118;28;20156;-83
2022/03/30 00:42:49;;;;;;;13.85;9.13;;;10.60;99.90;;;;;;5101535;28;20028;-82
2022/03/30 00:45:17;;;;;;;18.63;9.45;;;10.60;99.90;;;;;;5101750;28;20024;-83
2022/03/30 00:47:44;;;;;;;19.13;9.18;;;10.60;99.90;;;;;;5099784;28;20027;-83
2022/03/30 00:50:16;;;;;;;17.25;9.70;;;10.60;99.90;;;;;;5100431;28;20023;-82
2022/03/30 00:52:50;;;;;;;18.48;9.20;;;10.60;99.90;;;;;;5098687;28;20085;-83
2022/03/30 00:55:19;;;;;;;16.75;9.75;;;10.50;99.90;;;;;;5098641;28;20111;-83
2022/03/30 00:57:46;;;;;;;23.95;9.68;;;10.50;99.90;;;;;;5099354;28;20032;-83
2022/03/30 01:00:15;;;;;;;18.65;10.63;;;10.50;99.90;;;;;;5099053;28;20027;-82
2022/03/30 01:02:43;;;;;;;17.83;10.45;;;10.40;99.90;;;;;;5099385;28;20028;-82
2022/03/30 01:05:10;;;;;;;16.70;10.68;;;10.40;99.90;;;;;;5098066;28;20047;-82
2022/03/30 01:07:36;;;;;;;16.00;9.30;;;10.40;99.90;;;;;;5099190;28;20094;-81
2022/03/30 01:10:06;;;;;;;17.85;10.38;;;10.40;99.90;;;;;;5099260;28;20020;-81
2022/03/30 01:12:34;;;;;;;16.58;9.88;;;10.30;99.90;;;;;;5098155;28;20072;-82
2022/03/30 01:15:00;;;;;;;18.52;10.95;;;10.30;99.90;;;;;;5098032;28;20050;-82
2022/03/30 01:17:27;;;;;;;15.98;10.40;;;10.30;99.90;;;;;;5097638;28;20064;-82
2022/03/30 01:19:53;;;;;;;20.98;12.20;;;10.30;99.90;;;;;;5099397;28;20042;-83
2022/03/30 01:22:18;;;;;;;19.30;11.05;;;10.30;99.90;;;;;;5100275;28;20518;-83
2022/03/30 01:24:45;;;;;;;18.65;10.57;;;10.30;99.90;;;;;;5099556;28;20023;-83
2022/03/30 01:27:11;;;;;;;14.77;10.85;;;10.40;99.90;;;;;;5097774;28;20024;-83
2022/03/30 01:32:25;;;;;;;22.45;11.43;;;10.40;99.90;;;;;;5098982;28;20727;-84
2022/03/30 01:34:51;;;;;;;26.13;11.60;;;10.30;99.90;;;;;;5098982;28;20031;-83
2022/03/30 01:37:17;;;;;;;17.75;12.05;;;10.30;99.90;;;;;;5097480;28;20024;-83
2022/03/30 01:39:43;;;;;;;19.58;11.20;;;10.30;99.90;;;;;;5098926;28;20031;-81
2022/03/30 01:42:10;;;;;;;20.20;12.48;;;10.30;99.90;;;;;;5097050;28;20400;-81
2022/03/30 01:44:36;;;;;;;23.52;12.27;;;10.40;99.90;;;;;;5096695;28;20044;-81
2022/03/30 01:47:03;;;;;;;20.95;13.25;;;10.30;99.90;;;;;;5098186;28;20031;-81
2022/03/30 01:49:29;;;;;;;16.10;11.27;;;10.40;99.90;;;;;;5094144;28;20050;-82
2022/03/30 01:51:58;;;;;;;23.58;12.15;;;10.40;99.90;;;;;;5098354;28;20034;-82
2022/03/30 01:54:26;;;;;;;20.75;10.57;;;10.40;99.90;;;;;;5098185;28;20377;-82
2022/03/30 01:56:53;;;;;;;23.73;11.68;;;10.40;99.90;;;;;;5097625;28;20114;-82
2022/03/30 01:59:19;;;;;;;21.05;11.27;;;10.40;99.90;;;;;;5098895;28;20429;-82
2022/03/30 02:01:46;;;;;;;23.02;11.30;;;10.30;99.90;;;;;;5098655;28;20032;-82
2022/03/30 02:04:12;;;;;;;23.85;11.45;;;10.30;99.90;;;;;;5098450;28;20059;-82
2022/03/30 02:06:39;;;;;;;17.13;10.63;;;10.30;99.90;;;;;;5098143;28;20028;-81
2022/03/30 02:09:05;;;;;;;19.15;12.70;;;10.20;99.90;;;;;;5097804;28;20016;-81
2022/03/30 02:11:32;;;;;;;16.92;10.30;;;10.30;99.90;;;;;;5096506;28;20120;-82
2022/03/30 02:13:58;;;;;;;21.23;11.30;;;10.20;99.90;;;;;;5097320;28;20083;-81
2022/03/30 02:16:24;;;;;;;20.10;10.60;;;10.30;99.90;;;;;;5097612;28;20545;-81
2022/03/30 02:18:51;;;;;;;21.33;11.05;;;10.30;99.90;;;;;;5097870;28;20111;-81
2022/03/30 02:21:17;;;;;;;19.15;10.63;;;10.30;99.90;;;;;;5096511;28;20027;-81
2022/03/30 02:23:47;;;;;;;18.70;11.60;;;10.30;99.90;;;;;;5096313;28;20041;-82
2022/03/30 02:26:14;;;;;;;17.33;10.88;;;10.30;99.90;;;;;;5097988;28;20476;-82
2022/03/30 02:28:42;;;;;;;25.27;11.63;;;10.30;99.90;;;;;;5094177;28;20017;-82
2022/03/30 02:31:08;;;;;;;13.68;10.20;;;10.30;99.90;;;;;;5086207;28;20024;-82
2022/03/30 02:33:34;;;;;;;21.95;11.18;;;10.30;99.90;;;;;;5101549;28;20016;-82
2022/03/30 02:36:00;;;;;;;33.45;11.35;;;10.40;99.90;;;;;;5096621;28;20046;-82
2022/03/30 02:38:26;;;;;;;17.58;10.95;;;10.30;99.90;;;;;;5097644;28;20016;-82
2022/03/30 02:40:52;;;;;;;25.27;12.38;;;10.30;99.90;;;;;;5096517;28;20111;-82
2022/03/30 02:43:19;;;;;;;23.17;11.05;;;10.30;99.90;;;;;;5096045;28;20043;-82
2022/03/30 02:45:49;;;;;;;17.33;11.30;;;10.30;99.90;;;;;;5096474;28;20020;-82
2022/03/30 02:48:18;;;;;;;25.50;12.05;;;10.30;99.90;;;;;;5097660;28;20023;-83
2022/03/30 02:50:53;;;;;;;21.13;10.88;;;10.30;99.90;;;;;;5096674;28;20028;-82
2022/03/30 02:53:20;;;;;;;21.13;11.70;;;10.30;99.90;;;;;;5097206;28;20031;-81
2022/03/30 02:55:47;;;;;;;20.20;10.70;;;10.30;99.90;;;;;;5097380;28;20031;-81
2022/03/30 02:58:13;;;;;;;21.65;11.70;;;10.30;99.90;;;;;;5095763;28;20017;-81
2022/03/30 03:00:39;;;;;;;18.10;10.63;;;10.30;99.90;;;;;;5095869;28;20054;-81
2022/03/30 03:03:07;;;;;;;21.42;10.98;;;10.30;99.90;;;;;;5095892;28;20102;-81
2022/03/30 03:05:34;;;;;;;30.92;10.57;;;10.30;99.90;;;;;;5096070;28;20028;-81
2022/03/30 03:08:01;;;;;;;21.05;11.32;;;10.30;99.90;;;;;;5097240;28;20016;-82
2022/03/30 03:10:28;;;;;;;18.73;10.88;;;10.30;99.90;;;;;;5096126;28;20024;-81
2022/03/30 03:12:55;;;;;;;23.52;11.40;;;10.30;99.90;;;;;;5096952;28;20020;-81
2022/03/30 03:15:22;;;;;;;17.65;11.15;;;10.30;99.90;;;;;;5096929;28;20059;-82
2022/03/30 03:17:49;;;;;;;21.42;10.07;;;10.20;99.90;;;;;;5096425;28;20024;-81
2022/03/30 03:20:15;;;;;;;23.13;11.52;;;10.20;99.90;;;;;;5096585;28;20108;-82
2022/03/30 03:22:42;;;;;;;25.55;10.60;;;10.20;99.90;;;;;;5097916;28;20027;-81
2022/03/30 03:25:10;;;;;;;21.75;10.95;;;10.20;99.90;;;;;;5097483;28;20060;-81
2022/03/30 03:27:36;;;;;;;17.23;10.50;;;10.30;99.90;;;;;;5098985;28;20024;-81
2022/03/30 03:30:03;;;;;;;22.35;12.45;;;10.20;99.90;;;;;;5100671;28;20446;-81
2022/03/30 03:32:29;;;;;;;19.60;10.48;;;10.20;99.90;;;;;;5101836;28;20095;-81
2022/03/30 03:34:55;;;;;;;20.90;10.38;;;10.20;99.90;;;;;;5102702;28;20047;-80
2022/03/30 03:37:21;;;;;;;18.85;10.77;;;10.20;99.90;;;;;;5103761;28;20035;-81
2022/03/30 03:39:47;;;;;;;22.67;10.63;;;10.20;99.90;;;;;;5103930;28;20036;-81
2022/03/30 03:42:13;;;;;;;21.38;10.38;;;10.20;99.90;;;;;;5103761;28;20024;-82
2022/03/30 03:44:40;;;;;;;16.30;10.80;;;10.10;99.90;;;;;;5102553;28;20492;-82
2022/03/30 03:47:12;;;;;;;18.88;10.48;;;10.10;99.90;;;;;;5103880;28;20027;-81
2022/03/30 03:49:39;;;;;;;26.02;11.13;;;10.10;99.90;;;;;;5103058;28;20048;-81
2022/03/30 03:52:06;;;;;;;19.08;11.23;;;10.00;99.90;;;;;;5102295;28;20027;-81
2022/03/30 03:54:32;;;;;;;22.30;11.07;;;10.10;99.90;;;;;;5101464;28;20032;-81
2022/03/30 03:56:58;;;;;;;21.27;10.15;;;10.10;99.90;;;;;;5102030;28;20032;-82
2022/03/30 03:59:24;;;;;;;21.42;10.95;;;10.10;99.90;;;;;;5102180;28;20077;-81
2022/03/30 04:01:50;;;;;;;30.77;12.38;;;10.10;99.90;;;;;;5101067;28;20024;-81
2022/03/30 04:04:17;;;;;;;25.48;11.32;;;10.00;99.90;;;;;;5101494;28;20476;-81
2022/03/30 04:06:44;;;;;;;23.02;11.40;;;10.10;99.90;;;;;;5102740;28;20022;-81
2022/03/30 04:09:09;;;;;;;18.92;11.25;;;10.10;99.90;;;;;;5100902;28;20020;-81
2022/03/30 04:11:35;;;;;;;26.42;12.15;;;10.10;99.90;;;;;;5100720;28;20050;-81
2022/03/30 04:14:02;;;;;;;28.25;12.65;;;10.10;99.90;;;;;;5099992;28;20357;-82
2022/03/30 04:16:28;;;;;;;20.83;10.40;;;10.10;99.90;;;;;;5099354;28;20020;-81
2022/03/30 04:18:54;;;;;;;15.73;10.45;;;10.10;99.90;;;;;;5099279;28;20031;-82
2022/03/30 04:21:20;;;;;;;25.85;11.05;;;10.10;99.90;;;;;;5100507;28;20397;-81
2022/03/30 04:23:46;;;;;;;23.13;11.35;;;10.10;99.90;;;;;;5098682;28;20063;-82
2022/03/30 04:26:12;;;;;;;21.00;10.65;;;10.10;99.90;;;;;;5098863;28;20016;-81
2022/03/30 04:28:40;;;;;;;17.15;10.43;;;10.00;99.90;;;;;;5098439;28;20020;-81
2022/03/30 04:31:10;;;;;;;23.63;10.82;;;10.00;99.90;;;;;;5088444;28;20388;-81
2022/03/30 04:33:37;;;;;;;18.98;11.13;;;10.00;99.90;;;;;;5099767;28;20028;-81
2022/03/30 04:36:03;;;;;;;18.73;10.30;;;10.00;99.90;;;;;;5098779;28;20031;-81
2022/03/30 04:38:30;;;;;;;23.60;12.30;;;10.00;99.90;;;;;;5099322;28;20085;-81
2022/03/30 04:40:56;;;;;;;18.63;10.15;;;10.00;99.90;;;;;;5098458;28;20492;-81
2022/03/30 04:43:21;;;;;;;25.08;11.63;;;10.00;99.90;;;;;;5099173;28;20124;-81
2022/03/30 04:45:47;;;;;;;20.42;10.75;;;10.00;99.90;;;;;;5099587;28;20020;-81
2022/03/30 04:48:13;;;;;;;19.40;10.57;;;10.00;99.90;;;;;;5098200;28;20020;-81
2022/03/30 04:50:39;;;;;;;26.52;11.70;;;10.00;99.90;;;;;;5098317;28;20106;-81
2022/03/30 04:53:05;;;;;;;22.90;11.82;;;9.90;99.90;;;;;;5099387;28;20021;-80
2022/03/30 04:55:31;;;;;;;24.65;10.90;;;9.90;99.90;;;;;;5099318;28;20027;-80
2022/03/30 04:57:57;;;;;;;25.55;11.63;;;9.90;99.90;;;;;;5097909;28;20036;-80
2022/03/30 05:00:23;;;;;;;20.67;11.88;;;9.90;99.90;;;;;;5098777;28;20024;-79
2022/03/30 05:02:49;;;;;;;20.10;12.57;;;9.90;99.90;;;;;;5099436;28;20529;-80
2022/03/30 05:05:15;;;;;;;25.55;12.85;;;9.90;99.90;;;;;;5098996;28;20024;-80
2022/03/30 05:07:41;;;;;;;18.40;11.25;;;9.90;99.90;;;;;;5097910;28;20433;-81
2022/03/30 05:10:10;;;;;;;23.02;12.38;;;9.90;99.90;;;;;;5098185;28;20020;-80
2022/03/30 05:12:36;;;;;;;24.48;12.45;;;10.00;99.90;;;;;;5097933;28;20442;-81
2022/03/30 05:15:03;;;;;;;23.60;12.27;;;10.00;99.90;;;;;;5098004;28;20035;-80
2022/03/30 05:17:29;;;;;;;25.88;12.38;;;10.00;99.90;;;;;;5098909;28;20032;-81
2022/03/30 05:19:54;;;;;;;22.77;13.18;;;9.90;99.90;;;;;;5097966;28;20032;-79
2022/03/30 05:22:20;;;;;;;23.33;13.38;;;9.90;99.90;;;;;;5097316;28;20028;-81
2022/03/30 05:24:46;;;;;;;28.58;12.38;;;9.90;99.90;;;;;;5097339;28;20031;-80
2022/03/30 05:27:12;;;;;;;18.90;11.93;;;9.90;99.90;;;;;;5097375;28;20028;-80
2022/03/30 05:29:38;;;;;;;25.40;12.35;;;9.90;99.90;;;;;;5086943;28;20103;-80
2022/03/30 05:32:05;;;;;;;18.20;12.35;;;9.90;99.90;;;;;;5095188;28;20031;-81
2022/03/30 05:34:31;;;;;;;16.63;11.95;;;9.90;99.90;;;;;;5097651;28;20024;-81
2022/03/30 05:36:58;;;;;;;20.95;11.32;;;10.00;99.90;;;;;;5096427;28;20091;-81
2022/03/30 05:39:24;;;;;;;26.25;12.95;;;10.00;99.90;;;;;;5088985;28;20472;-81
2022/03/30 05:41:51;;;;;;;21.67;13.90;;;9.90;99.90;;;;;;5098451;28;20028;-81
2022/03/30 05:44:17;;;;;;;26.08;14.35;;;9.90;99.90;;;;;;5096901;28;20048;-81
2022/03/30 05:46:43;;;;;;;26.13;14.10;;;9.90;99.90;;;;;;5096618;28;20454;-81
2022/03/30 05:49:09;;;;;;;22.90;13.10;;;9.90;99.90;;;;;;5096214;28;20370;-81
2022/03/30 05:51:35;;;;;;;28.05;13.70;;;9.90;99.90;;;;;;5099036;28;20065;-81
2022/03/30 05:54:00;;;;;;;26.58;15.00;;;9.90;99.90;;;;;;5097449;28;20067;-81
2022/03/30 05:59:12;;;;;;;23.30;13.30;;;9.90;99.90;;;;;;5098246;28;20027;-81
2022/03/30 06:01:38;;;;;;;21.23;14.10;;;10.00;99.90;;;;;;5096534;28;20032;-81
2022/03/30 06:04:04;;;;;;;34.15;13.85;;;9.90;99.90;;;;;;5096826;28;20024;-81
2022/03/30 06:06:30;;;;;;;26.40;14.43;;;10.00;99.90;;;;;;5097897;28;20031;-81
2022/03/30 06:08:56;;;;;;;26.33;14.77;;;9.90;99.90;;;;;;5097693;28;20107;-81
2022/03/30 06:11:22;;;;;;;26.08;14.10;;;9.90;99.90;;;;;;5096597;28;20024;-81
2022/03/30 06:13:48;;;;;;;33.47;16.17;;;10.00;99.90;;;;;;5097693;28;20028;-81
2022/03/30 06:16:15;;;;;;;27.02;13.88;;;9.90;99.90;;;;;;5096184;28;20028;-81
2022/03/30 06:18:43;;;;;;;25.73;16.42;;;10.00;99.90;;;;;;5096312;28;20020;-81
2022/03/30 06:21:09;;;;;;;29.98;15.57;;;10.00;99.90;;;;;;5096317;28;20024;-81
2022/03/30 06:23:35;;;;;;;23.25;15.00;;;10.00;99.90;;;;;;5096328;28;20039;-81
2022/03/30 06:26:02;;;;;;;27.10;15.52;;;10.00;99.90;;;;;;5096743;28;20077;-80
2022/03/30 06:28:29;;;;;;;24.75;14.77;;;10.00;99.90;;;;;;5091586;28;20385;-80
2022/03/30 06:30:56;;;;;;;24.27;14.05;;;10.10;99.90;;;;;;5083405;28;20027;-80
2022/03/30 06:33:22;;;;;;;25.23;14.20;;;10.10;99.90;;;;;;5097788;28;20028;-80
2022/03/30 06:35:48;;;;;;;24.20;13.80;;;10.10;99.90;;;;;;5083255;28;20038;-79
2022/03/30 06:38:14;;;;;;;21.27;13.40;;;10.10;99.90;;;;;;5081083;28;20103;-79
2022/03/30 06:40:40;;;;;;;20.75;13.02;;;10.10;99.90;;;;;;5094439;28;20124;-79
2022/03/30 06:43:06;;;;;;;26.13;13.40;;;10.20;99.90;;;;;;5077240;28;20087;-79
2022/03/30 06:45:32;;;;;;;23.63;13.05;;;10.20;99.90;;;;;;5077332;28;20028;-79
2022/03/30 06:47:58;;;;;;;30.30;12.75;;;10.20;99.90;;;;;;5089669;28;20024;-79
2022/03/30 06:50:24;;;;;;;18.70;13.43;;;10.30;99.90;;;;;;5093743;28;20024;-79
2022/03/30 06:52:50;;;;;;;20.83;13.45;;;10.30;99.90;;;;;;5079788;28;21181;-78
2022/03/30 06:55:16;;;;;;;23.02;14.50;;;10.30;99.90;;;;;;5095243;28;20093;-79
2022/03/30 06:57:42;;;;;;;23.00;12.88;;;10.30;99.90;;;;;;5096457;28;20024;-79
2022/03/30 07:00:13;;;;;;;30.27;14.15;;;10.40;99.90;;;;;;5095956;28;20078;-78
2022/03/30 07:02:39;;;;;;;31.55;14.18;;;10.50;99.90;;;;;;5100785;28;20028;-78
2022/03/30 07:05:06;;;;;;;28.98;14.30;;;10.50;99.90;;;;;;5100528;28;20028;-78
2022/03/30 07:10:18;;;;;;;23.58;12.88;;;10.60;99.90;;;;;;5096932;28;20091;-78
2022/03/30 07:12:50;;;;;;;23.42;13.27;;;10.60;99.90;;;;;;5100665;28;20043;-78
2022/03/30 07:15:18;;;;;;;24.80;13.50;;;10.60;99.90;;;;;;5096678;28;20093;-78
2022/03/30 07:17:55;;;;;;;25.88;13.57;;;10.60;99.90;;;;;;5099580;28;20036;-79
2022/03/30 07:20:23;;;;;;;26.95;11.40;;;10.70;99.90;;;;;;5099593;28;20027;-78
2022/03/30 07:22:50;;;;;;;22.60;11.07;;;10.60;99.90;;;;;;5099937;28;20118;-79
2022/03/30 07:25:18;;;;;;;22.77;10.95;;;10.70;99.90;;;;;;5101086;28;20047;-78
2022/03/30 07:27:47;;;;;;;25.98;12.00;;;10.70;99.90;;;;;;5099644;28;20020;-77
2022/03/30 07:30:16;;;;;;;26.75;11.07;;;10.70;99.90;;;;;;5095993;28;20016;-77
2022/03/30 07:32:45;;;;;;;25.33;10.80;;;10.70;99.90;;;;;;5089075;28;20032;-78
2022/03/30 07:35:13;;;;;;;29.30;12.15;;;10.80;99.90;;;;;;5098532;28;20024;-78
2022/03/30 07:37:41;;;;;;;28.48;11.88;;;10.80;99.90;;;;;;5093612;28;20021;-78
2022/03/30 07:40:08;;;;;;;18.52;11.27;;;10.70;99.90;;;;;;5098838;28;20103;-78
2022/03/30 07:42:35;;;;;;;28.48;10.88;;;10.70;99.90;;;;;;5098483;28;20038;-78
2022/03/30 07:45:01;;;;;;;17.05;9.65;;;10.70;99.90;;;;;;5100181;28;20054;-78
2022/03/30 07:47:29;;;;;;;23.05;11.02;;;10.80;99.90;;;;;;5085161;28;20025;-78
2022/03/30 07:49:55;;;;;;;21.15;10.68;;;10.80;99.90;;;;;;5099514;28;20016;-78
2022/03/30 07:52:22;;;;;;;20.95;11.02;;;10.70;99.90;;;;;;5099708;28;20050;-77
2022/03/30 07:54:49;;;;;;;24.95;10.95;;;10.80;99.90;;;;;;5100347;28;20016;-78
2022/03/30 07:57:15;;;;;;;20.35;10.93;;;10.80;99.90;;;;;;5099204;28;20769;-78
2022/03/30 07:59:41;;;;;;;25.63;12.30;;;10.80;99.90;;;;;;5097585;28;20107;-78
2022/03/30 08:02:09;;;;;;;31.85;12.90;;;10.80;99.90;;;;;;5079542;28;20136;-79
2022/03/30 08:04:35;;;;;;;24.10;11.63;;;10.80;99.90;;;;;;5071876;28;20023;-78
2022/03/30 08:07:00;;;;;;;26.15;11.30;;;10.90;99.90;;;;;;5091645;28;20024;-77
2022/03/30 08:09:26;;;;;;;21.98;12.35;;;10.90;99.90;;;;;;5097225;28;20023;-78
2022/03/30 08:11:52;;;;;;;19.90;10.98;;;10.90;99.90;;;;;;5092451;28;20024;-78
2022/03/30 08:14:19;;;;;;;30.10;12.70;;;10.90;99.90;;;;;;5099101;28;20101;-79
2022/03/30 08:16:46;;;;;;;17.00;10.57;;;10.90;99.90;;;;;;5096154;28;20051;-81
2022/03/30 08:19:12;;;;;;;18.85;10.23;;;10.90;99.90;;;;;;5085346;28;20020;-79
2022/03/30 08:24:23;;;;;;;21.75;11.77;;;10.90;99.90;;;;;;5097408;28;20051;-81
2022/03/30 08:26:49;;;;;;;25.10;11.32;;;11.00;99.90;;;;;;5100696;28;20016;-81
2022/03/30 08:29:16;;;;;;;24.13;11.63;;;11.00;99.90;;;;;;5082025;28;20097;-81
2022/03/30 08:31:43;;;;;;;22.52;11.32;;;11.00;99.90;;;;;;5092932;28;20488;-82
2022/03/30 08:34:09;;;;;;;25.33;10.35;;;11.10;99.90;;;;;;5101062;28;20031;-83
2022/03/30 08:36:34;;;;;;;13.75;9.05;;;11.20;99.90;;;;;;5101510;28;20024;-81
2022/03/30 08:39:11;;;;;;;20.73;11.05;;;11.30;99.90;;;;;;5099891;28;20567;-83
2022/03/30 08:41:40;;;;;;;26.30;10.75;;;11.40;99.90;;;;;;5089807;28;20024;-77
2022/03/30 08:44:06;;;;;;;20.08;10.63;;;11.50;99.90;;;;;;5098244;28;20047;-78
2022/03/30 08:46:32;;;;;;;25.67;10.80;;;11.50;99.90;;;;;;5097927;28;20679;-77
2022/03/30 08:48:58;;;;;;;17.77;9.93;;;11.50;99.90;;;;;;5099885;28;20395;-77
2022/03/30 08:51:25;;;;;;;21.80;10.75;;;11.60;99.90;;;;;;5098166;28;20024;-78
2022/03/30 08:53:51;;;;;;;17.58;10.77;;;11.70;99.90;;;;;;5098153;28;20103;-78
2022/03/30 08:56:17;;;;;;;20.42;10.38;;;11.70;99.90;;;;;;5098029;28;20487;-78
2022/03/30 08:58:43;;;;;;;30.60;10.35;;;11.70;99.90;;;;;;5099666;28;20060;-78
2022/03/30 09:01:11;;;;;;;17.90;10.20;;;11.60;99.90;;;;;;5099169;28;20054;-77
2022/03/30 09:03:55;;;;;;;22.00;10.13;;;11.40;99.90;;;;;;5097882;28;20031;-78
2022/03/30 09:06:39;;;;;;;19.38;9.93;;;11.40;99.90;;;;;;5098905;28;20024;-77
2022/03/30 09:09:06;;;;;;;28.15;12.07;;;11.40;99.90;;;;;;5097567;28;20020;-78
2022/03/30 09:11:55;;;;;;;21.95;10.48;;;11.50;99.90;;;;;;5087334;28;20027;-78
2022/03/30 09:14:27;;;;;;;23.15;10.05;;;11.60;99.90;;;;;;5074135;28;20036;-77
2022/03/30 09:16:56;;;;;;;20.55;9.93;;;11.70;99.90;;;;;;5096606;28;20024;-77
2022/03/30 09:19:22;;;;;;;20.25;12.45;;;11.70;99.90;;;;;;5098511;28;20020;-77
2022/03/30 09:21:51;;;;;;;401.15;221.48;;;11.80;99.90;;;;;;5080147;28;20020;-78
2022/03/30 09:24:22;;;;;;;202.45;108.22;;;11.80;99.90;;;;;;5078424;28;20405;-77
2022/03/30 09:26:51;;;;;;;;;;;11.80;99.90;;;;;;5091122;28;20067;-77
2022/03/30 09:29:21;;;;;;;616.42;391.83;;;11.90;99.90;;;;;;5092562;28;19951;-77
2022/03/30 09:31:49;;;;;;;205.85;100.45;;;12.00;99.90;;;;;;5096795;28;20024;-77
2022/03/30 09:34:16;;;;;;;23.40;12.05;;;12.00;99.90;;;;;;5098574;28;20086;-77
2022/03/30 09:36:43;;;;;;;25.67;14.38;;;12.00;99.90;;;;;;5098521;28;20028;-78
2022/03/30 09:39:36;;;;;;;26.58;11.13;;;12.00;99.90;;;;;;5098259;28;20016;-78
2022/03/30 09:42:05;;;;;;;22.50;10.55;;;11.90;99.90;;;;;;5096806;28;20032;-78
2022/03/30 09:44:44;;;;;;;23.75;11.65;;;11.80;99.90;;;;;;5096824;28;20044;-78
2022/03/30 09:47:10;;;;;;;21.30;10.05;;;11.80;99.90;;;;;;5097146;28;20107;-77
2022/03/30 09:49:43;;;;;;;16.70;10.38;;;11.80;99.90;;;;;;5096732;28;20102;-78
2022/03/30 09:52:30;;;;;;;22.70;11.43;;;11.70;99.90;;;;;;5097448;28;20495;-78
2022/03/30 09:54:58;;;;;;;19.13;10.55;;;11.80;99.90;;;;;;5097477;28;20020;-78
2022/03/30 09:57:40;;;;;;;22.17;11.68;;;11.90;99.90;;;;;;5094059;28;20074;-78
2022/03/30 10:00:09;;;;;;;23.05;11.73;;;11.90;99.90;;;;;;5096960;28;20026;-78
2022/03/30 10:02:49;;;;;;;22.15;11.20;;;11.80;99.90;;;;;;5097052;28;20032;-78
2022/03/30 10:05:17;;;;;;;17.90;11.02;;;11.90;99.90;;;;;;5083263;28;20031;-78
2022/03/30 10:07:45;;;;;;;38.25;21.98;;;11.90;99.90;;;;;;5077326;28;20020;-79
2022/03/30 10:10:14;;;;;;;22.83;12.10;;;11.90;99.90;;;;;;5077176;28;20008;-79
2022/03/30 10:12:40;;;;;;;21.85;10.88;;;11.80;99.90;;;;;;5077960;28;20017;-79
2022/03/30 10:15:08;;;;;;;24.05;12.07;;;11.80;99.90;;;;;;5096163;28;20544;-78
2022/03/30 10:17:35;;;;;;;23.05;11.93;;;11.70;99.90;;;;;;5096346;28;20028;-79
2022/03/30 10:20:02;;;;;;;21.52;11.50;;;11.70;99.90;;;;;;5097752;28;20054;-79
2022/03/30 10:23:04;;;;;;;28.60;13.48;;;11.70;99.90;;;;;;5096268;28;20039;-79
2022/03/30 10:26:06;;;;;;;31.95;13.60;;;11.70;99.90;;;;;;5082065;28;20558;-79
2022/03/30 10:28:43;;;;;;;31.63;15.85;;;11.80;99.90;;;;;;5076738;28;20023;-79
2022/03/30 10:31:10;;;;;;;23.02;12.10;;;11.80;99.90;;;;;;5086738;28;20016;-79
2022/03/30 10:33:42;;;;;;;24.83;13.27;;;11.90;99.90;;;;;;5097777;28;20047;-79
2022/03/30 10:36:29;;;;;;;22.13;11.73;;;12.00;99.90;;;;;;5097533;28;20020;-77
2022/03/30 10:39:16;;;;;;;19.38;11.30;;;11.90;99.90;;;;;;5097315;28;20016;-78
2022/03/30 10:42:06;;;;;;;21.75;11.98;;;11.80;99.90;;;;;;5096997;28;20476;-78
2022/03/30 10:44:45;;;;;;;17.83;12.73;;;11.70;99.90;;;;;;5097176;28;20064;-78
2022/03/30 10:47:21;;;;;;;24.35;14.05;;;11.70;99.90;;;;;;5095761;28;20098;-78
2022/03/30 10:49:49;;;;;;;28.63;13.68;;;11.60;99.90;;;;;;5091356;28;20038;-79
2022/03/30 10:52:39;;;;;;;24.65;14.07;;;11.50;99.90;;;;;;5097015;28;20020;-79
2022/03/30 10:55:14;;;;;;;22.38;15.20;;;11.40;99.90;;;;;;5096835;28;20020;-79
2022/03/30 10:57:57;;;;;;;26.88;16.08;;;11.30;99.90;;;;;;5095563;28;20403;-79
2022/03/30 11:00:27;;;;;;;23.95;15.30;;;11.30;99.90;;;;;;5097195;28;20434;-78
2022/03/30 11:03:10;;;;;;;27.52;13.57;;;11.30;99.90;;;;;;5097140;28;20024;-79
2022/03/30 11:05:37;;;;;;;30.25;12.40;;;11.10;99.90;;;;;;5097190;28;20036;-80
2022/03/30 11:08:05;;;;;;;23.08;13.68;;;11.00;99.90;;;;;;5095826;28;20055;-78
2022/03/30 11:10:47;;;;;;;22.73;13.40;;;10.90;99.90;;;;;;5095708;28;20024;-78
2022/03/30 11:13:22;;;;;;;21.42;11.52;;;10.80;99.90;;;;;;5097073;28;20024;-78
2022/03/30 11:16:00;;;;;;;22.77;13.80;;;10.80;99.90;;;;;;5095350;28;20028;-78
2022/03/30 11:18:28;;;;;;;23.92;12.73;;;10.70;99.90;;;;;;5097105;28;20440;-78
2022/03/30 11:21:09;;;;;;;22.48;13.20;;;10.70;99.90;;;;;;5096830;28;20831;-78
2022/03/30 11:23:38;;;;;;;27.00;13.88;;;10.70;99.90;;;;;;5096824;28;20056;-79
2022/03/30 11:26:05;;;;;;;27.55;14.05;;;10.70;99.90;;;;;;5096657;28;20020;-79
2022/03/30 11:28:40;;;;;;;20.08;14.27;;;10.70;99.90;;;;;;5095302;28;20025;-78
2022/03/30 11:31:26;;;;;;;25.63;14.07;;;10.70;99.90;;;;;;5096485;28;20043;-78
2022/03/30 11:34:26;;;;;;;25.58;15.57;;;10.70;99.90;;;;;;5094298;28;20090;-78
2022/03/30 11:36:53;;;;;;;22.50;14.80;;;10.80;99.90;;;;;;5096628;28;20020;-77
2022/03/30 11:39:31;;;;;;;28.35;16.63;;;10.80;99.90;;;;;;5085358;28;20480;-77
2022/03/30 11:41:58;;;;;;;29.95;14.90;;;10.80;99.90;;;;;;5088372;28;20043;-80
2022/03/30 11:47:18;;;;;;;16.88;11.55;;;10.80;99.90;;;;;;5097801;28;20085;-81
2022/03/30 11:49:51;;;;;;;27.92;12.90;;;10.60;99.90;;;;;;5100285;28;20016;-80
2022/03/30 11:52:18;;;;;;;23.17;13.93;;;10.60;99.90;;;;;;5099411;28;20028;-79
2022/03/30 11:54:49;;;;;;;24.08;14.25;;;10.60;99.90;;;;;;5099156;28;20047;-79
2022/03/30 11:57:15;;;;;;;;;;;10.60;99.90;;;;;;5097878;28;20661;-79
2022/03/30 11:59:41;;;;;;;30.95;14.95;;;10.80;99.90;;;;;;5098847;28;20279;-79
2022/03/30 12:02:08;;;;;;;26.75;17.05;;;10.80;99.90;;;;;;5099106;28;20114;-80
2022/03/30 12:04:34;;;;;;;24.40;15.70;;;10.90;99.90;;;;;;5098746;28;20028;-80
2022/03/30 12:07:00;;;;;;;27.20;16.38;;;10.90;99.90;;;;;;5098933;28;20017;-79
2022/03/30 12:09:26;;;;;;;27.00;16.40;;;10.90;99.90;;;;;;5098781;28;20034;-79
2022/03/30 12:11:52;;;;;;;27.42;17.85;;;10.80;99.90;;;;;;5099920;28;20031;-79
2022/03/30 12:14:25;;;;;;;33.88;17.40;;;10.70;99.90;;;;;;5099844;28;20443;-79
2022/03/30 12:16:52;;;;;;;34.00;18.25;;;10.70;99.90;;;;;;5097693;28;20028;-79
2022/03/30 12:19:19;;;;;;;26.98;17.58;;;10.60;99.90;;;;;;5082765;28;20107;-79
2022/03/30 12:21:45;;;;;;;28.70;16.73;;;10.60;99.90;;;;;;5092112;28;20096;-80
2022/03/30 12:24:12;;;;;;;24.02;15.52;;;10.60;99.90;;;;;;5097968;28;20523;-81
2022/03/30 12:26:38;;;;;;;31.13;18.05;;;10.50;99.90;;;;;;5098767;28;20027;-80
2022/03/30 12:29:06;;;;;;;37.95;19.23;;;10.50;99.90;;;;;;5098395;28;20034;-80
2022/03/30 12:31:41;;;;;;;31.20;20.77;;;10.60;99.90;;;;;;5098229;28;20024;-81
2022/03/30 12:34:15;;;;;;;34.50;22.33;;;10.70;99.90;;;;;;5098819;28;20395;-79
2022/03/30 12:36:46;;;;;;;34.03;19.25;;;10.70;99.90;;;;;;5099530;28;20507;-80
2022/03/30 12:39:23;;;;;;;44.67;28.30;;;10.80;99.90;;;;;;5098287;28;20558;-81
2022/03/30 12:42:05;;;;;;;33.58;20.05;;;10.80;99.90;;;;;;5099306;28;20063;-80
2022/03/30 12:44:39;;;;;;;26.05;15.52;;;10.80;99.90;;;;;;5097890;28;20121;-80
2022/03/30 12:47:31;;;;;;;26.70;16.88;;;10.80;99.90;;;;;;5098739;28;20016;-79
2022/03/30 12:49:59;;;;;;;29.95;18.70;;;10.80;99.90;;;;;;5097579;28;20020;-80